Time;durP1;ratioP1;P1;durP2;ratioP2;P2;SDS_P1;SDS_P2;PMS_P1;PMS_P2;Temp;Humidity;BMP_temperature;BMP_pressure;BME280_temperature;BME280_humidity;BME280_pressure;Samples;Min_cycle;Max_cycle;Signal;HPM_P1;HPM_P2
2023/12/09 00:00:17;;;;;;;29.70;5.13;;;;;;;;;;4955199;29;20063;-91
2023/12/09 00:02:42;;;;;;;13.77;4.10;;;;;;;;;;4952678;28;20034;-84
2023/12/09 00:05:08;;;;;;;27.43;5.33;;;;;;;;;;4955262;29;20474;-85
2023/12/09 00:07:33;;;;;;;19.50;4.63;;;;;;;;;;4955252;29;20110;-84
2023/12/09 00:09:58;;;;;;;14.53;5.07;;;;;;;;;;4955180;29;20015;-84
2023/12/09 00:12:23;;;;;;;26.27;5.57;;;;;;;;;;4954934;29;20454;-84
2023/12/09 00:14:49;;;;;;;25.13;5.03;;;;;;;;;;4954796;29;20114;-84
2023/12/09 00:17:14;;;;;;;27.63;5.80;;;;;;;;;;4954859;29;20011;-84
2023/12/09 00:19:39;;;;;;;19.70;4.70;;;;;;;;;;4956453;29;20055;-84
2023/12/09 00:22:05;;;;;;;19.40;5.00;;;;;;;;;;4954942;29;20020;-84
2023/12/09 00:24:30;;;;;;;23.77;4.77;;;;;;;;;;4963007;29;20122;-83
2023/12/09 00:26:55;;;;;;;16.47;4.13;;;;;;;;;;4954753;29;20023;-83
2023/12/09 00:29:21;;;;;;;30.33;5.07;;;;;;;;;;4954763;29;20110;-83
2023/12/09 00:31:46;;;;;;;25.03;5.33;;;;;;;;;;4954235;29;20015;-83
2023/12/09 00:34:11;;;;;;;22.30;4.20;;;;;;;;;;4954822;29;20027;-83
2023/12/09 00:36:36;;;;;;;16.53;4.33;;;;;;;;;;4954567;29;20039;-82
2023/12/09 00:39:02;;;;;;;27.00;4.90;;;;;;;;;;4954522;29;20030;-83
2023/12/09 00:41:27;;;;;;;22.10;4.17;;;;;;;;;;4955516;29;20074;-83
2023/12/09 00:43:52;;;;;;;22.90;5.17;;;;;;;;;;4954300;29;20019;-83
2023/12/09 00:46:17;;;;;;;16.43;4.73;;;;;;;;;;4954497;29;20082;-83
2023/12/09 00:48:43;;;;;;;17.47;4.43;;;;;;;;;;4954626;29;20035;-83
2023/12/09 00:51:08;;;;;;;17.47;3.63;;;;;;;;;;4954348;29;20023;-83
2023/12/09 00:53:34;;;;;;;20.05;4.28;;;;;;;;;;4954148;28;20482;-83
2023/12/09 00:55:59;;;;;;;17.40;4.28;;;;;;;;;;4955612;28;20042;-83
2023/12/09 00:58:24;;;;;;;24.27;4.80;;;;;;;;;;4952920;29;20066;-83
2023/12/09 01:00:49;;;;;;;13.27;4.53;;;;;;;;;;4954552;29;20075;-83
2023/12/09 01:03:15;;;;;;;19.77;4.20;;;;;;;;;;4954342;29;20023;-84
2023/12/09 01:05:40;;;;;;;24.33;4.63;;;;;;;;;;4953986;29;20034;-83
2023/12/09 01:08:05;;;;;;;16.40;4.20;;;;;;;;;;4955372;28;20451;-83
2023/12/09 01:10:30;;;;;;;16.67;4.20;;;;;;;;;;4954084;29;20540;-83
2023/12/09 01:12:56;;;;;;;24.17;4.27;;;;;;;;;;4955518;29;20016;-83
2023/12/09 01:15:21;;;;;;;22.07;4.60;;;;;;;;;;4952943;28;20122;-83
2023/12/09 01:17:50;;;;;;;23.37;4.33;;;;;;;;;;4953486;29;20062;-83
2023/12/09 01:20:15;;;;;;;17.63;4.17;;;;;;;;;;4953515;29;20118;-84
2023/12/09 01:22:40;;;;;;;23.13;4.63;;;;;;;;;;4954505;29;20074;-82
2023/12/09 01:25:06;;;;;;;9.60;2.87;;;;;;;;;;4954304;29;20026;-82
2023/12/09 01:27:31;;;;;;;18.07;4.07;;;;;;;;;;4954302;29;20035;-82
2023/12/09 01:29:56;;;;;;;20.37;4.10;;;;;;;;;;4953303;29;20030;-84
2023/12/09 01:32:22;;;;;;;20.07;3.73;;;;;;;;;;4953574;29;20030;-84
2023/12/09 01:34:47;;;;;;;16.02;4.28;;;;;;;;;;4953908;29;20082;-84
2023/12/09 01:37:12;;;;;;;16.17;4.23;;;;;;;;;;4953432;29;20467;-84
2023/12/09 01:39:38;;;;;;;20.67;3.80;;;;;;;;;;4953502;29;20035;-84
2023/12/09 01:42:03;;;;;;;19.83;4.10;;;;;;;;;;4952811;29;20027;-84
2023/12/09 01:44:29;;;;;;;16.07;3.47;;;;;;;;;;4959918;29;20027;-90
2023/12/09 01:46:54;;;;;;;14.73;3.50;;;;;;;;;;4953472;29;20016;-91
2023/12/09 01:49:19;;;;;;;15.63;3.70;;;;;;;;;;4966961;29;20054;-91
2023/12/09 01:51:45;;;;;;;17.20;3.73;;;;;;;;;;4967961;28;20075;-90
2023/12/09 01:54:10;;;;;;;21.00;3.57;;;;;;;;;;4966826;28;20041;-90
2023/12/09 01:56:36;;;;;;;16.50;3.67;;;;;;;;;;4954832;28;20110;-83
2023/12/09 01:59:02;;;;;;;14.87;3.13;;;;;;;;;;4948708;29;20027;-84
2023/12/09 02:01:27;;;;;;;19.03;3.27;;;;;;;;;;4952062;29;20102;-83
2023/12/09 02:03:53;;;;;;;16.43;3.67;;;;;;;;;;4953111;29;20423;-83
2023/12/09 02:06:18;;;;;;;16.83;3.57;;;;;;;;;;4954261;28;22153;-83
2023/12/09 02:08:43;;;;;;;14.90;3.60;;;;;;;;;;4953076;29;20043;-83
2023/12/09 02:11:18;;;;;;;16.87;4.17;;;;;;;;;;4952904;29;20027;-83
2023/12/09 02:13:51;;;;;;;17.23;3.93;;;;;;;;;;4953097;29;20027;-83
2023/12/09 02:16:27;;;;;;;12.50;2.73;;;;;;;;;;4953005;29;20090;-82
2023/12/09 02:18:53;;;;;;;12.93;3.10;;;;;;;;;;4954435;28;20031;-83
2023/12/09 02:21:19;;;;;;;14.67;2.63;;;;;;;;;;4952237;29;20027;-82
2023/12/09 02:23:46;;;;;;;13.00;3.80;;;;;;;;;;4953325;29;20397;-83
2023/12/09 02:26:20;;;;;;;19.80;3.10;;;;;;;;;;4952323;28;20118;-83
2023/12/09 02:28:49;;;;;;;12.47;2.67;;;;;;;;;;4952756;29;20062;-82
2023/12/09 02:31:16;;;;;;;18.70;3.33;;;;;;;;;;4953021;29;20352;-81
2023/12/09 02:33:45;;;;;;;16.60;2.50;;;;;;;;;;4954529;28;20020;-81
2023/12/09 02:36:12;;;;;;;21.03;2.90;;;;;;;;;;4953382;29;20405;-82
2023/12/09 02:38:38;;;;;;;15.27;2.97;;;;;;;;;;4953208;29;20503;-82
2023/12/09 02:41:05;;;;;;;13.93;3.50;;;;;;;;;;4953254;29;20115;-82
2023/12/09 02:43:30;;;;;;;10.90;2.67;;;;;;;;;;4952928;29;20467;-81
2023/12/09 02:45:56;;;;;;;16.50;3.13;;;;;;;;;;4953160;29;20026;-81
2023/12/09 02:48:22;;;;;;;6.07;2.20;;;;;;;;;;4954456;28;20410;-81
2023/12/09 02:50:47;;;;;;;14.03;2.83;;;;;;;;;;4952907;29;20019;-81
2023/12/09 02:53:14;;;;;;;15.17;2.83;;;;;;;;;;4942482;29;20259;-81
2023/12/09 02:55:39;;;;;;;22.77;4.00;;;;;;;;;;4951271;29;20335;-81
2023/12/09 02:58:04;;;;;;;16.37;2.77;;;;;;;;;;4949568;29;20163;-82
2023/12/09 03:00:29;;;;;;;16.73;2.97;;;;;;;;;;4953019;29;20050;-81
2023/12/09 03:02:55;;;;;;;22.33;3.30;;;;;;;;;;4952821;29;20039;-81
2023/12/09 03:05:20;;;;;;;20.13;3.90;;;;;;;;;;4952914;29;20126;-81
2023/12/09 03:07:45;;;;;;;20.20;4.00;;;;;;;;;;4953861;29;20031;-81
2023/12/09 03:10:10;;;;;;;18.17;3.27;;;;;;;;;;4952875;29;20188;-81
2023/12/09 03:12:36;;;;;;;21.50;3.80;;;;;;;;;;4952924;29;20106;-82
2023/12/09 03:15:05;;;;;;;7.33;2.07;;;;;;;;;;4952723;29;20358;-81
2023/12/09 03:17:30;;;;;;;12.30;3.10;;;;;;;;;;4952849;29;20027;-84
2023/12/09 03:19:55;;;;;;;12.87;2.77;;;;;;;;;;4953552;29;20039;-84
2023/12/09 03:22:21;;;;;;;18.30;3.17;;;;;;;;;;4951913;29;20039;-84
2023/12/09 03:24:47;;;;;;;15.93;3.10;;;;;;;;;;4951929;29;20491;-84
2023/12/09 03:27:13;;;;;;;14.65;3.35;;;;;;;;;;4952173;29;20069;-84
2023/12/09 03:29:38;;;;;;;12.00;2.47;;;;;;;;;;4951811;29;20143;-84
2023/12/09 03:32:04;;;;;;;10.73;2.10;;;;;;;;;;4951997;29;20028;-84
2023/12/09 03:34:29;;;;;;;19.55;3.35;;;;;;;;;;4952300;29;20087;-84
2023/12/09 03:36:54;;;;;;;11.75;2.75;;;;;;;;;;4951746;28;20024;-84
2023/12/09 03:39:19;;;;;;;12.45;2.40;;;;;;;;;;4956059;29;20081;-84
2023/12/09 03:41:45;;;;;;;7.80;1.77;;;;;;;;;;4955543;29;20042;-84
2023/12/09 03:44:10;;;;;;;12.45;2.55;;;;;;;;;;4954038;29;20122;-84
2023/12/09 03:46:36;;;;;;;16.58;2.28;;;;;;;;;;4955820;29;20058;-84
2023/12/09 03:49:01;;;;;;;12.27;2.50;;;;;;;;;;4955438;29;20024;-84
2023/12/09 03:51:26;;;;;;;7.97;2.50;;;;;;;;;;4956265;28;20027;-84
2023/12/09 03:53:51;;;;;;;12.77;2.97;;;;;;;;;;4942364;29;20027;-84
2023/12/09 03:56:17;;;;;;;16.17;2.60;;;;;;;;;;4955596;29;20482;-85
2023/12/09 03:58:42;;;;;;;18.02;3.15;;;;;;;;;;4955101;29;20368;-84
2023/12/09 04:01:08;;;;;;;8.55;1.88;;;;;;;;;;4945720;29;20027;-84
2023/12/09 04:03:33;;;;;;;9.70;2.13;;;;;;;;;;4952079;29;20055;-85
2023/12/09 04:05:58;;;;;;;13.88;2.42;;;;;;;;;;4955135;29;20023;-84
2023/12/09 04:08:24;;;;;;;9.90;2.72;;;;;;;;;;4955965;29;20102;-82
2023/12/09 04:10:50;;;;;;;16.05;2.63;;;;;;;;;;4955556;29;20023;-82
2023/12/09 04:13:15;;;;;;;21.92;3.45;;;;;;;;;;4955851;29;20382;-82
2023/12/09 04:15:41;;;;;;;11.77;1.73;;;;;;;;;;4955643;29;20516;-81
2023/12/09 04:18:06;;;;;;;10.05;2.80;;;;;;;;;;4946800;29;20024;-82
2023/12/09 04:20:32;;;;;;;6.22;1.75;;;;;;;;;;4951009;29;20030;-82
2023/12/09 04:22:57;;;;;;;11.65;2.67;;;;;;;;;;4955637;29;20110;-81
2023/12/09 04:25:24;;;;;;;9.00;2.00;;;;;;;;;;4956902;29;20023;-81
2023/12/09 04:27:49;;;;;;;17.95;2.63;;;;;;;;;;4955563;29;20027;-82
2023/12/09 04:30:15;;;;;;;10.82;2.30;;;;;;;;;;4955625;29;20368;-82
2023/12/09 04:32:41;;;;;;;10.55;2.33;;;;;;;;;;4955520;29;20502;-81
2023/12/09 04:35:08;;;;;;;12.85;2.30;;;;;;;;;;4955500;29;20019;-81
2023/12/09 04:37:33;;;;;;;12.88;2.30;;;;;;;;;;4955308;29;20035;-82
2023/12/09 04:39:59;;;;;;;10.23;2.13;;;;;;;;;;4955494;29;20019;-82
2023/12/09 04:42:24;;;;;;;12.50;2.33;;;;;;;;;;4955612;29;20078;-81
2023/12/09 04:44:49;;;;;;;8.68;2.30;;;;;;;;;;4955203;29;20117;-82
2023/12/09 04:47:14;;;;;;;12.18;2.80;;;;;;;;;;4955031;29;20035;-82
2023/12/09 04:49:40;;;;;;;6.53;1.88;;;;;;;;;;4954894;28;20028;-82
2023/12/09 04:52:05;;;;;;;8.43;1.77;;;;;;;;;;4947542;29;20020;-82
2023/12/09 04:54:30;;;;;;;9.05;1.92;;;;;;;;;;4949282;29;20113;-82
2023/12/09 04:56:56;;;;;;;11.95;2.42;;;;;;;;;;4968976;29;20046;-91
2023/12/09 04:59:22;;;;;;;10.10;2.25;;;;;;;;;;4960566;29;20034;-83
2023/12/09 05:01:47;;;;;;;12.30;2.70;;;;;;;;;;4954158;29;20031;-84
2023/12/09 05:04:14;;;;;;;13.10;2.63;;;;;;;;;;4954751;29;20030;-84
2023/12/09 05:06:39;;;;;;;9.07;1.23;;;;;;;;;;4954010;29;20431;-84
2023/12/09 05:09:04;;;;;;;7.50;2.80;;;;;;;;;;4955376;29;20102;-84
2023/12/09 05:11:30;;;;;;;8.13;2.55;;;;;;;;;;4954172;29;20050;-83
2023/12/09 05:13:55;;;;;;;12.55;2.20;;;;;;;;;;4954007;29;20051;-84
2023/12/09 05:16:20;;;;;;;5.72;2.35;;;;;;;;;;4954007;29;20474;-84
2023/12/09 05:18:46;;;;;;;9.20;2.50;;;;;;;;;;4953343;29;20031;-84
2023/12/09 05:21:14;;;;;;;11.93;2.85;;;;;;;;;;4962899;29;20039;-91
2023/12/09 05:23:40;;;;;;;6.07;1.80;;;;;;;;;;4969888;28;20074;-91
2023/12/09 05:26:05;;;;;;;12.30;2.08;;;;;;;;;;4961336;29;20023;-91
2023/12/09 05:28:30;;;;;;;9.50;3.38;;;;;;;;;;4961442;28;20023;-91
2023/12/09 05:30:56;;;;;;;13.35;3.05;;;;;;;;;;4956773;29;20038;-90
2023/12/09 05:33:21;;;;;;;15.85;2.95;;;;;;;;;;4962535;29;20015;-91
2023/12/09 05:35:47;;;;;;;12.93;2.03;;;;;;;;;;4961219;29;20107;-90
2023/12/09 05:38:12;;;;;;;18.88;2.50;;;;;;;;;;4965223;29;20023;-90
2023/12/09 05:40:38;;;;;;;11.63;2.15;;;;;;;;;;4962904;29;20099;-83
2023/12/09 05:43:03;;;;;;;10.93;2.05;;;;;;;;;;4954986;28;20097;-83
2023/12/09 05:45:28;;;;;;;10.93;1.80;;;;;;;;;;4954563;28;20356;-83
2023/12/09 05:47:53;;;;;;;17.70;3.03;;;;;;;;;;4954102;28;20041;-83
2023/12/09 05:50:19;;;;;;;8.93;2.08;;;;;;;;;;4952821;28;20051;-83
2023/12/09 05:52:44;;;;;;;11.70;2.38;;;;;;;;;;4953166;29;20023;-82
2023/12/09 05:55:13;;;;;;;11.38;2.13;;;;;;;;;;4953014;29;20019;-83
2023/12/09 05:57:39;;;;;;;6.70;1.90;;;;;;;;;;4952743;29;20502;-82
2023/12/09 06:00:05;;;;;;;12.00;1.90;;;;;;;;;;4952535;28;20011;-83
2023/12/09 06:02:30;;;;;;;9.05;1.98;;;;;;;;;;4954644;28;20030;-83
2023/12/09 06:04:55;;;;;;;6.03;1.40;;;;;;;;;;4953183;29;20106;-83
2023/12/09 06:07:20;;;;;;;7.70;1.77;;;;;;;;;;4954040;29;20091;-83
2023/12/09 06:09:46;;;;;;;10.65;1.33;;;;;;;;;;4952844;29;20030;-83
2023/12/09 06:12:11;;;;;;;12.93;2.20;;;;;;;;;;4949706;29;20471;-84
2023/12/09 06:14:36;;;;;;;12.32;2.03;;;;;;;;;;4945936;29;20030;-84
2023/12/09 06:17:01;;;;;;;10.40;1.80;;;;;;;;;;4951910;29;20104;-83
2023/12/09 06:19:27;;;;;;;10.27;2.13;;;;;;;;;;4952475;28;20450;-84
2023/12/09 06:21:53;;;;;;;8.15;1.92;;;;;;;;;;4952560;28;20025;-84
2023/12/09 06:24:19;;;;;;;14.48;2.13;;;;;;;;;;4954144;28;20023;-84
2023/12/09 06:26:44;;;;;;;8.75;1.63;;;;;;;;;;4952902;28;20019;-83
2023/12/09 06:29:13;;;;;;;14.07;2.28;;;;;;;;;;4952432;29;20050;-84
2023/12/09 06:31:39;;;;;;;4.63;1.38;;;;;;;;;;4952380;28;20019;-84
2023/12/09 06:34:04;;;;;;;12.20;2.03;;;;;;;;;;4952787;28;20070;-85
2023/12/09 06:36:29;;;;;;;9.15;1.45;;;;;;;;;;4952436;29;20037;-85
2023/12/09 06:38:55;;;;;;;10.98;1.60;;;;;;;;;;4952741;29;20019;-85
2023/12/09 06:41:20;;;;;;;15.35;1.48;;;;;;;;;;4952219;29;20027;-85
2023/12/09 06:43:46;;;;;;;14.90;1.33;;;;;;;;;;4952347;29;20482;-85
2023/12/09 06:46:11;;;;;;;11.10;1.65;;;;;;;;;;4953750;28;20027;-86
2023/12/09 06:48:38;;;;;;;12.65;1.48;;;;;;;;;;4953747;28;20030;-85
2023/12/09 06:51:03;;;;;;;6.22;1.27;;;;;;;;;;4951036;28;20034;-86
2023/12/09 06:53:28;;;;;;;9.00;0.98;;;;;;;;;;4948451;29;20431;-86
2023/12/09 06:55:54;;;;;;;7.28;1.23;;;;;;;;;;4951468;29;20019;-86
2023/12/09 06:58:19;;;;;;;11.38;1.60;;;;;;;;;;4951939;29;20027;-85
2023/12/09 07:00:46;;;;;;;9.65;1.35;;;;;;;;;;4951918;29;20367;-86
2023/12/09 07:03:11;;;;;;;12.55;2.03;;;;;;;;;;4951544;29;20046;-85
2023/12/09 07:05:37;;;;;;;9.65;1.67;;;;;;;;;;4953042;28;20025;-85
2023/12/09 07:08:03;;;;;;;2.30;0.93;;;;;;;;;;4949210;29;20045;-85
2023/12/09 07:10:28;;;;;;;3.95;1.75;;;;;;;;;;4949963;29;20078;-85
2023/12/09 07:12:53;;;;;;;11.35;1.85;;;;;;;;;;4953638;28;20486;-85
2023/12/09 07:15:19;;;;;;;6.78;1.70;;;;;;;;;;4955418;29;20015;-84
2023/12/09 07:17:44;;;;;;;9.85;1.35;;;;;;;;;;4947057;29;20050;-85
2023/12/09 07:20:09;;;;;;;6.15;1.48;;;;;;;;;;4956019;29;20415;-85
2023/12/09 07:22:35;;;;;;;9.95;1.35;;;;;;;;;;4955790;29;20031;-85
2023/12/09 07:25:00;;;;;;;11.77;1.88;;;;;;;;;;4953594;28;20025;-85
2023/12/09 07:27:25;;;;;;;6.65;1.30;;;;;;;;;;4954685;29;20026;-85
2023/12/09 07:29:52;;;;;;;5.15;1.10;;;;;;;;;;4955560;28;20027;-86
2023/12/09 07:32:17;;;;;;;8.60;1.38;;;;;;;;;;4955499;28;20012;-85
2023/12/09 07:34:42;;;;;;;6.03;1.85;;;;;;;;;;4955611;28;20030;-86
2023/12/09 07:37:11;;;;;;;6.90;1.20;;;;;;;;;;4953886;28;20145;-85
2023/12/09 07:39:36;;;;;;;6.53;1.30;;;;;;;;;;4949713;28;20023;-83
2023/12/09 07:42:02;;;;;;;5.18;1.30;;;;;;;;;;4942126;29;20086;-84
2023/12/09 07:44:27;;;;;;;10.85;2.08;;;;;;;;;;4939436;29;20045;-84
2023/12/09 07:46:52;;;;;;;6.00;0.88;;;;;;;;;;4945819;29;20385;-84
2023/12/09 07:49:18;;;;;;;5.45;1.13;;;;;;;;;;4954891;29;20070;-85
2023/12/09 07:51:43;;;;;;;18.73;2.05;;;;;;;;;;4948712;29;20028;-85
2023/12/09 07:54:08;;;;;;;10.15;1.48;;;;;;;;;;4945971;29;20023;-85
2023/12/09 07:56:33;;;;;;;5.68;1.00;;;;;;;;;;4969622;28;20114;-87
2023/12/09 07:58:59;;;;;;;7.85;1.30;;;;;;;;;;4953975;29;20019;-85
2023/12/09 08:01:25;;;;;;;2.58;0.75;;;;;;;;;;4955039;29;20046;-85
2023/12/09 08:03:51;;;;;;;10.40;1.50;;;;;;;;;;4954971;29;20130;-85
2023/12/09 08:06:16;;;;;;;6.78;1.38;;;;;;;;;;4953973;29;20127;-84
2023/12/09 08:08:41;;;;;;;2.00;0.70;;;;;;;;;;4954661;29;20051;-85
2023/12/09 08:11:07;;;;;;;9.73;1.35;;;;;;;;;;4956041;28;20012;-85
2023/12/09 08:13:33;;;;;;;0.65;0.17;;;;;;;;;;4954855;29;20046;-85
2023/12/09 08:15:58;;;;;;;1.08;0.25;;;;;;;;;;4954952;29;20019;-85
2023/12/09 08:18:24;;;;;;;5.93;1.13;;;;;;;;;;4955913;29;20019;-84
2023/12/09 08:20:49;;;;;;;5.65;1.58;;;;;;;;;;4954058;29;20027;-85
2023/12/09 08:23:14;;;;;;;3.92;0.82;;;;;;;;;;4955778;28;20431;-85
2023/12/09 08:25:41;;;;;;;12.15;1.30;;;;;;;;;;4954741;29;20106;-85
2023/12/09 08:28:07;;;;;;;12.07;1.38;;;;;;;;;;4954237;29;20031;-85
2023/12/09 08:30:32;;;;;;;4.32;0.95;;;;;;;;;;4954510;29;20110;-84
2023/12/09 08:32:58;;;;;;;1.88;0.82;;;;;;;;;;4954729;29;20475;-84
2023/12/09 08:35:23;;;;;;;6.85;1.17;;;;;;;;;;4954193;29;20023;-85
2023/12/09 08:37:48;;;;;;;8.88;0.90;;;;;;;;;;4954717;29;20069;-86
2023/12/09 08:40:14;;;;;;;7.57;1.05;;;;;;;;;;4954588;29;20355;-86
2023/12/09 08:42:43;;;;;;;4.97;0.88;;;;;;;;;;4954030;29;20095;-86
2023/12/09 08:45:13;;;;;;;8.23;1.50;;;;;;;;;;4955005;29;20030;-86
2023/12/09 08:47:38;;;;;;;3.28;0.73;;;;;;;;;;4956025;28;20423;-84
2023/12/09 08:50:04;;;;;;;8.27;1.63;;;;;;;;;;4954429;29;20027;-84
2023/12/09 08:52:30;;;;;;;7.00;0.80;;;;;;;;;;4955527;28;20346;-84
2023/12/09 08:54:56;;;;;;;3.00;0.80;;;;;;;;;;4954612;29;20420;-84
2023/12/09 08:57:22;;;;;;;1.90;0.60;;;;;;;;;;4954464;29;20027;-84
2023/12/09 08:59:47;;;;;;;5.35;1.15;;;;;;;;;;4947248;29;20435;-83
2023/12/09 09:02:12;;;;;;;6.07;1.10;;;;;;;;;;4948043;29;20432;-84
2023/12/09 09:04:37;;;;;;;10.00;1.33;;;;;;;;;;4948111;29;20094;-83
2023/12/09 09:07:03;;;;;;;6.07;0.90;;;;;;;;;;4949862;29;20061;-84
2023/12/09 09:09:28;;;;;;;5.32;0.88;;;;;;;;;;4955439;28;20026;-84
2023/12/09 09:11:53;;;;;;;5.68;1.13;;;;;;;;;;4947154;29;20047;-83
2023/12/09 09:14:19;;;;;;;3.90;1.10;;;;;;;;;;4951260;29;20019;-84
2023/12/09 09:16:44;;;;;;;5.93;1.00;;;;;;;;;;4954243;29;20019;-84
2023/12/09 09:19:09;;;;;;;4.55;0.80;;;;;;;;;;4954726;29;20395;-83
2023/12/09 09:21:34;;;;;;;5.25;0.75;;;;;;;;;;4954497;28;20477;-83
2023/12/09 09:24:00;;;;;;;5.45;0.65;;;;;;;;;;4955733;29;20026;-83
2023/12/09 09:26:25;;;;;;;4.88;0.82;;;;;;;;;;4953361;29;20023;-83
2023/12/09 09:28:50;;;;;;;5.60;1.17;;;;;;;;;;4952848;28;20027;-84
2023/12/09 09:31:15;;;;;;;2.10;0.60;;;;;;;;;;4953120;29;20471;-83
2023/12/09 09:33:41;;;;;;;6.07;0.52;;;;;;;;;;4954064;29;20023;-85
2023/12/09 09:36:07;;;;;;;3.45;0.90;;;;;;;;;;4952646;28;20038;-84
2023/12/09 09:38:32;;;;;;;2.10;0.55;;;;;;;;;;4952073;29;20023;-85
2023/12/09 09:40:58;;;;;;;3.65;0.85;;;;;;;;;;4952585;29;20114;-84
2023/12/09 09:43:25;;;;;;;1.70;0.57;;;;;;;;;;4952853;29;20031;-84
2023/12/09 09:45:51;;;;;;;5.78;1.20;;;;;;;;;;4951635;28;20590;-84
2023/12/09 09:48:17;;;;;;;4.70;0.93;;;;;;;;;;4951733;28;20023;-84
2023/12/09 09:50:49;;;;;;;1.77;0.45;;;;;;;;;;4951450;28;20043;-85
2023/12/09 09:53:19;;;;;;;3.03;1.25;;;;;;;;;;4950118;28;20533;-84
2023/12/09 09:55:45;;;;;;;1.33;0.32;;;;;;;;;;4953121;29;20026;-85
2023/12/09 09:58:12;;;;;;;7.85;1.13;;;;;;;;;;4951553;29;20340;-85
2023/12/09 10:00:38;;;;;;;12.02;1.42;;;;;;;;;;4952560;29;20027;-87
2023/12/09 10:03:04;;;;;;;8.23;0.88;;;;;;;;;;4949119;29;20030;-86
2023/12/09 10:05:29;;;;;;;4.72;0.90;;;;;;;;;;4950540;29;20022;-86
2023/12/09 10:07:55;;;;;;;1.77;0.30;;;;;;;;;;4947532;29;20081;-86
2023/12/09 10:10:20;;;;;;;5.13;1.13;;;;;;;;;;4950422;28;20039;-86
2023/12/09 10:12:46;;;;;;;7.28;1.27;;;;;;;;;;4953549;28;20055;-86
2023/12/09 10:15:11;;;;;;;5.22;0.90;;;;;;;;;;4952481;29;20027;-86
2023/12/09 10:17:36;;;;;;;3.15;0.70;;;;;;;;;;4952555;29;20019;-86
2023/12/09 10:20:05;;;;;;;1.65;0.68;;;;;;;;;;4951568;28;20027;-87
2023/12/09 10:22:30;;;;;;;5.68;0.88;;;;;;;;;;4951405;29;20035;-86
2023/12/09 10:24:56;;;;;;;2.22;0.88;;;;;;;;;;4952353;29;20024;-87
2023/12/09 10:27:25;;;;;;;1.75;0.40;;;;;;;;;;4952082;29;20027;-87
2023/12/09 10:29:51;;;;;;;1.75;0.57;;;;;;;;;;4947742;29;20027;-86
2023/12/09 10:32:16;;;;;;;0.17;0.10;;;;;;;;;;4947189;29;20164;-86
2023/12/09 10:34:42;;;;;;;6.80;0.77;;;;;;;;;;4951389;28;20019;-86
2023/12/09 10:37:07;;;;;;;6.72;0.10;;;;;;;;;;4949903;29;20109;-86
2023/12/09 10:39:33;;;;;;;4.80;0.60;;;;;;;;;;4951677;29;20031;-86
2023/12/09 10:41:59;;;;;;;2.17;0.70;;;;;;;;;;4951571;28;20058;-85
2023/12/09 10:44:24;;;;;;;6.22;0.52;;;;;;;;;;4953278;29;20050;-85
2023/12/09 10:46:49;;;;;;;1.40;0.50;;;;;;;;;;4951626;28;20034;-86
2023/12/09 10:49:15;;;;;;;5.45;0.65;;;;;;;;;;4951368;28;20032;-87
2023/12/09 10:51:40;;;;;;;1.25;0.43;;;;;;;;;;4946838;28;20019;-86
2023/12/09 10:54:05;;;;;;;3.60;0.73;;;;;;;;;;4951572;29;20031;-85
2023/12/09 10:56:30;;;;;;;1.35;0.45;;;;;;;;;;4949216;29;20041;-87
2023/12/09 10:58:56;;;;;;;4.22;0.82;;;;;;;;;;4950540;29;20102;-88
2023/12/09 11:01:22;;;;;;;5.32;0.45;;;;;;;;;;4951651;29;20050;-87
2023/12/09 11:03:47;;;;;;;1.85;0.50;;;;;;;;;;4951600;29;20528;-88
2023/12/09 11:06:13;;;;;;;1.75;0.60;;;;;;;;;;4951183;29;20055;-88
2023/12/09 11:08:40;;;;;;;3.80;0.60;;;;;;;;;;4948021;29;20023;-88
2023/12/09 11:11:07;;;;;;;0.75;0.22;;;;;;;;;;4953118;28;20553;-88
2023/12/09 11:13:33;;;;;;;4.40;0.47;;;;;;;;;;4946469;29;20229;-88
2023/12/09 11:16:08;;;;;;;0.32;0.30;;;;;;;;;;4949303;28;20034;-87
2023/12/09 11:18:33;;;;;;;0.52;0.30;;;;;;;;;;4958686;28;20959;-88
2023/12/09 11:21:00;;;;;;;1.13;0.28;;;;;;;;;;4951490;29;20030;-88
2023/12/09 11:23:26;;;;;;;0.90;0.25;;;;;;;;;;4951021;28;20078;-86
2023/12/09 11:25:51;;;;;;;0.20;0.03;;;;;;;;;;4951994;28;20030;-86
2023/12/09 11:28:16;;;;;;;2.65;0.90;;;;;;;;;;4951949;29;20106;-88
2023/12/09 11:30:44;;;;;;;1.02;0.17;;;;;;;;;;4945816;28;20031;-89
2023/12/09 11:33:09;;;;;;;0.35;0.20;;;;;;;;;;4951382;28;20019;-90
2023/12/09 11:35:35;;;;;;;2.17;0.75;;;;;;;;;;4951423;28;20026;-90
2023/12/09 11:38:01;;;;;;;3.95;0.30;;;;;;;;;;4951844;28;20027;-90
2023/12/09 11:40:30;;;;;;;0.10;0.10;;;;;;;;;;4952252;29;20173;-90
2023/12/09 11:42:59;;;;;;;1.45;0.40;;;;;;;;;;4952460;29;20027;-90
2023/12/09 11:45:24;;;;;;;1.40;0.47;;;;;;;;;;4952397;29;20569;-90
2023/12/09 11:47:50;;;;;;;0.30;0.28;;;;;;;;;;4952471;29;20018;-89
2023/12/09 11:50:18;;;;;;;1.77;0.32;;;;;;;;;;4952506;29;20023;-89
2023/12/09 11:52:44;;;;;;;1.20;0.40;;;;;;;;;;4952301;28;21198;-90
2023/12/09 11:55:10;;;;;;;0.47;0.30;;;;;;;;;;4952533;29;20422;-90
2023/12/09 11:57:36;;;;;;;1.02;0.10;;;;;;;;;;4949522;29;20103;-90
2023/12/09 12:00:04;;;;;;;0.40;0.40;;;;;;;;;;4955545;29;20028;-89
2023/12/09 12:02:31;;;;;;;1.48;0.57;;;;;;;;;;4954778;29;20405;-89
2023/12/09 12:04:56;;;;;;;4.15;0.68;;;;;;;;;;4957054;28;20027;-90
2023/12/09 12:07:22;;;;;;;0.88;0.20;;;;;;;;;;4956968;29;20027;-89
2023/12/09 12:09:47;;;;;;;0.10;0.10;;;;;;;;;;4955543;29;20083;-90
2023/12/09 12:12:12;;;;;;;1.00;0.40;;;;;;;;;;4956745;29;20019;-90
2023/12/09 12:14:38;;;;;;;3.45;0.28;;;;;;;;;;4957142;28;20011;-90
2023/12/09 12:17:03;;;;;;;0.45;0.10;;;;;;;;;;4955589;29;20015;-90
2023/12/09 12:19:29;;;;;;;0.00;0.00;;;;;;;;;;4955857;29;20023;-89
2023/12/09 12:21:55;;;;;;;1.38;0.50;;;;;;;;;;4955526;29;20027;-90
2023/12/09 12:24:20;;;;;;;2.75;0.60;;;;;;;;;;4955838;29;20038;-91
2023/12/09 12:26:46;;;;;;;0.30;0.00;;;;;;;;;;4955665;29;20031;-90
2023/12/09 12:29:18;;;;;;;0.08;0.00;;;;;;;;;;4955964;29;20065;-91
2023/12/09 12:31:43;;;;;;;0.63;0.17;;;;;;;;;;4955478;29;20034;-90
2023/12/09 12:34:15;;;;;;;3.97;0.82;;;;;;;;;;4955239;29;20395;-89
2023/12/09 12:36:41;;;;;;;;;;;;;;;;;;4955442;29;20486;-90
2023/12/09 12:39:07;;;;;;;4.38;0.30;;;;;;;;;;4956208;29;20357;-90
2023/12/09 12:41:32;;;;;;;1.85;0.40;;;;;;;;;;4955974;29;20038;-91
2023/12/09 12:43:57;;;;;;;0.73;0.30;;;;;;;;;;4944535;29;20034;-90
2023/12/09 12:46:23;;;;;;;0.00;0.00;;;;;;;;;;4955092;29;20031;-90
2023/12/09 12:48:48;;;;;;;2.33;0.50;;;;;;;;;;4955012;29;20059;-89
2023/12/09 12:51:13;;;;;;;1.58;0.40;;;;;;;;;;4955088;29;20418;-88
2023/12/09 12:53:39;;;;;;;6.45;0.77;;;;;;;;;;4955435;28;20035;-88
2023/12/09 12:56:04;;;;;;;4.40;0.40;;;;;;;;;;4956277;29;20020;-89
2023/12/09 12:58:29;;;;;;;3.47;0.30;;;;;;;;;;4949707;29;20027;-88
2023/12/09 13:00:55;;;;;;;1.55;0.13;;;;;;;;;;4952672;29;20118;-89
2023/12/09 13:03:20;;;;;;;0.20;0.20;;;;;;;;;;4952262;29;20101;-89
2023/12/09 13:05:45;;;;;;;0.00;0.00;;;;;;;;;;4943670;29;20035;-89
2023/12/09 13:08:10;;;;;;;2.95;0.47;;;;;;;;;;4971005;28;20445;-89
2023/12/09 13:10:36;;;;;;;1.65;0.30;;;;;;;;;;4954545;28;20140;-88
2023/12/09 13:13:01;;;;;;;0.08;0.00;;;;;;;;;;4954637;29;20031;-88
2023/12/09 13:15:27;;;;;;;0.32;0.20;;;;;;;;;;4954307;29;20019;-88
2023/12/09 13:17:52;;;;;;;0.98;0.20;;;;;;;;;;4954517;29;20023;-88
2023/12/09 13:20:17;;;;;;;0.45;0.10;;;;;;;;;;4954382;29;20027;-88
2023/12/09 13:22:45;;;;;;;0.00;0.00;;;;;;;;;;4954910;29;20482;-89
2023/12/09 13:25:10;;;;;;;0.00;0.00;;;;;;;;;;4954616;29;20019;-89
2023/12/09 13:27:37;;;;;;;0.32;0.20;;;;;;;;;;4954653;29;20078;-89
2023/12/09 13:30:04;;;;;;;1.30;0.30;;;;;;;;;;4954495;29;20110;-90
2023/12/09 13:32:30;;;;;;;1.35;0.20;;;;;;;;;;4954150;29;20111;-90
2023/12/09 13:34:55;;;;;;;1.45;0.30;;;;;;;;;;4953574;29;20054;-89
2023/12/09 13:37:20;;;;;;;1.17;0.25;;;;;;;;;;4953020;29;20030;-89
2023/12/09 13:39:45;;;;;;;0.00;0.00;;;;;;;;;;4954229;29;20106;-89
2023/12/09 13:42:12;;;;;;;0.20;0.00;;;;;;;;;;4955688;29;20113;-89
2023/12/09 13:44:38;;;;;;;0.00;0.00;;;;;;;;;;4954152;29;20027;-89
2023/12/09 13:47:03;;;;;;;0.00;0.00;;;;;;;;;;4953656;29;20097;-89
2023/12/09 13:49:28;;;;;;;0.43;0.20;;;;;;;;;;4950840;28;20519;-89
2023/12/09 13:51:54;;;;;;;1.65;0.20;;;;;;;;;;4952477;29;20016;-89
2023/12/09 13:54:22;;;;;;;0.10;0.05;;;;;;;;;;4954033;29;20114;-89
2023/12/09 13:56:48;;;;;;;1.95;0.30;;;;;;;;;;4953797;29;20118;-89
2023/12/09 13:59:13;;;;;;;0.95;0.10;;;;;;;;;;4954014;29;20113;-89
2023/12/09 14:01:38;;;;;;;0.63;0.50;;;;;;;;;;4940383;29;20024;-89
2023/12/09 14:04:05;;;;;;;0.95;0.57;;;;;;;;;;4955166;29;20020;-90
2023/12/09 14:06:31;;;;;;;0.60;0.30;;;;;;;;;;4953412;29;20494;-89
2023/12/09 14:08:56;;;;;;;0.73;0.22;;;;;;;;;;4943387;29;20114;-90
2023/12/09 14:11:22;;;;;;;0.17;0.15;;;;;;;;;;4954807;29;20047;-90
2023/12/09 14:13:48;;;;;;;0.10;0.10;;;;;;;;;;4953788;29;20074;-89
2023/12/09 14:16:13;;;;;;;0.28;0.17;;;;;;;;;;4954801;29;20023;-89
2023/12/09 14:18:39;;;;;;;1.00;0.30;;;;;;;;;;4954519;29;20102;-89
2023/12/09 14:21:07;;;;;;;0.50;0.30;;;;;;;;;;4952334;28;20019;-89
2023/12/09 14:23:33;;;;;;;0.55;0.50;;;;;;;;;;4952984;29;20024;-88
2023/12/09 14:25:58;;;;;;;1.25;0.20;;;;;;;;;;4954883;28;20031;-89
2023/12/09 14:28:24;;;;;;;0.95;0.20;;;;;;;;;;4941620;28;20171;-81